»·PEaware :: QXE2303 KGPI-KPDX

QXE2303 :: KGPI-KPDX

FLIGHT INFORMATION

Flight Status: Arrived
Operator:
Horizon Air
More flights by this operator :: More flights under this callsign
Pilot: Doug L. (8712)
Aircraft: DEHAVILLAND DASH 8 400
(DH8D)
More flights by this aircraft type
Origin: KGPI Glacier Park Intl
United States
Destination: KPDX Portland Intl
United States
More flights between these airports :: More routes between these airports
Route: KILLY1 EYCHO JORAD HHOOD4
File this flight plan on PilotEdge
Remarks:
Altitude:
(Current/Filed)
24,000ft
Speed:
(Current/Filed)
330kts
Departed: 15-Feb-19 07:51 PM
Arrived: 15-Feb-19 09:33 PM
Distance/Time
Traveled:
378nm/1:41
Distance/Time
To Go:
Arrived

Flight Plot

Page will automatically refresh every two minutes.

Flight plan parsing failed; only flown route is shown


Map Options




Map Legend


Flown Route
Filed Route
Departure Airport
Arrival Airport
Navaid (VOR, NDB)
Fix

Horizontal Profiles

Position Reports

Time Latitude Longitude Heading Altitude Ground
Speed
15-Feb-19 19:23 48.308429 -114.252762 125 2976ft 0kts
15-Feb-19 19:24 48.308429 -114.252762 125 2976ft 0kts
15-Feb-19 19:25 48.308429 -114.252762 125 2976ft 0kts
15-Feb-19 19:26 48.308429 -114.252762 125 2976ft 0kts
15-Feb-19 19:27 48.308429 -114.252762 125 2976ft 0kts
15-Feb-19 19:29 48.308429 -114.252762 125 2976ft 0kts
15-Feb-19 19:30 48.308429 -114.252762 125 2976ft 0kts
15-Feb-19 19:31 48.308429 -114.252762 125 2976ft 0kts
15-Feb-19 19:32 48.308429 -114.252762 125 2976ft 0kts
15-Feb-19 19:33 48.308429 -114.252762 125 2976ft 0kts
15-Feb-19 19:34 48.308429 -114.252762 125 2976ft 0kts
15-Feb-19 19:35 48.308429 -114.252762 125 2976ft 0kts
15-Feb-19 19:36 48.308429 -114.252762 125 2976ft 0kts
15-Feb-19 19:37 48.308429 -114.252762 125 2976ft 0kts
15-Feb-19 19:38 48.308429 -114.252762 125 2976ft 0kts
15-Feb-19 19:39 48.308429 -114.252762 125 2976ft 0kts
15-Feb-19 19:40 48.308429 -114.252762 125 2976ft 0kts
15-Feb-19 19:41 48.308429 -114.252762 125 2976ft 0kts
15-Feb-19 19:42 48.308597 -114.253096 129 2976ft 2kts
15-Feb-19 19:43 48.309000 -114.253582 152 2976ft 0kts
15-Feb-19 19:44 48.309000 -114.253582 152 2976ft 0kts
15-Feb-19 19:45 48.309000 -114.253582 152 2976ft 0kts
15-Feb-19 19:46 48.309000 -114.253582 152 2976ft 0kts
15-Feb-19 19:46 48.309177 -114.253219 25 2977ft 9kts
15-Feb-19 19:48 48.313663 -114.250069 35 2977ft 18kts
15-Feb-19 19:49 48.317960 -114.245681 35 2977ft 8kts
15-Feb-19 19:49 48.318339 -114.245505 347 2977ft 2kts
15-Feb-19 19:50 48.316168 -114.249606 210 2977ft 70kts
15-Feb-19 19:51 48.289327 -114.285424 234 4367ft 159kts
15-Feb-19 19:53 48.264162 -114.363884 242 7224ft 184kts
15-Feb-19 19:53 48.243583 -114.420388 223 9610ft 185kts
15-Feb-19 19:54 48.206522 -114.472882 224 12241ft 185kts
15-Feb-19 19:55 48.168952 -114.525867 225 14145ft 195kts
15-Feb-19 19:56 48.127606 -114.581519 219 15942ft 204kts
15-Feb-19 19:57 48.082473 -114.636460 219 17564ft 211kts
15-Feb-19 19:58 48.036023 -114.693478 219 19012ft 218kts
15-Feb-19 19:59 47.988247 -114.752162 218 20372ft 223kts
15-Feb-19 20:00 47.941898 -114.814966 236 21588ft 230kts
15-Feb-19 20:01 47.913176 -114.902648 241 22702ft 236kts
15-Feb-19 20:02 47.883639 -114.992302 241 23688ft 243kts
15-Feb-19 20:03 47.852776 -115.086841 242 23997ft 273kts
15-Feb-19 20:04 47.817678 -115.193766 242 24004ft 306kts
15-Feb-19 20:05 47.779063 -115.311294 242 24002ft 328kts
15-Feb-19 20:06 47.738039 -115.435386 242 24001ft 342kts
15-Feb-19 20:07 47.695523 -115.563142 242 24001ft 350kts
15-Feb-19 20:08 47.652232 -115.692962 242 24000ft 355kts
15-Feb-19 20:09 47.609687 -115.819645 242 24000ft 359kts
15-Feb-19 20:10 47.579394 -115.909488 242 24000ft 361kts
15-Feb-19 20:11 47.542626 -116.018145 242 23999ft 354kts
15-Feb-19 20:12 47.508884 -116.117494 242 23999ft 349kts
15-Feb-19 20:13 47.475167 -116.216341 242 24000ft 345kts
15-Feb-19 20:14 47.442285 -116.312357 242 24000ft 343kts
15-Feb-19 20:15 47.411084 -116.403163 242 24000ft 341kts
15-Feb-19 20:16 47.378115 -116.498786 242 24000ft 340kts
15-Feb-19 20:17 47.349658 -116.581028 242 24000ft 340kts
15-Feb-19 20:18 47.322804 -116.658415 242 24000ft 340kts
15-Feb-19 20:19 47.296040 -116.735313 242 24000ft 340kts
15-Feb-19 20:20 47.267876 -116.815996 242 24000ft 339kts
15-Feb-19 20:21 47.242032 -116.889813 242 24000ft 339kts
15-Feb-19 20:22 47.214475 -116.968294 242 24000ft 339kts
15-Feb-19 20:23 47.184731 -117.052738 242 24000ft 339kts
15-Feb-19 20:24 47.156584 -117.132401 241 24000ft 339kts
15-Feb-19 20:25 47.126415 -117.217637 241 24000ft 339kts
15-Feb-19 20:26 47.097163 -117.299823 241 24000ft 338kts
15-Feb-19 20:27 47.068181 -117.381037 241 23999ft 338kts
15-Feb-19 20:28 47.039256 -117.461195 242 24000ft 339kts
15-Feb-19 20:29 47.008290 -117.547941 242 24000ft 339kts
15-Feb-19 20:30 46.978186 -117.631818 242 24000ft 339kts
15-Feb-19 20:31 46.947637 -117.716320 242 24000ft 339kts
15-Feb-19 20:32 46.918603 -117.796421 242 24000ft 338kts
15-Feb-19 20:33 46.891219 -117.871796 242 24000ft 338kts
15-Feb-19 20:34 46.862102 -117.951699 242 24000ft 338kts
15-Feb-19 20:35 46.832242 -118.033367 242 24000ft 337kts
15-Feb-19 20:36 46.800881 -118.118863 242 24000ft 337kts
15-Feb-19 20:37 46.769884 -118.203241 242 24000ft 336kts
15-Feb-19 20:38 46.739173 -118.286488 242 24000ft 336kts
15-Feb-19 20:39 46.705330 -118.377879 242 24000ft 335kts
15-Feb-19 20:40 46.675854 -118.457302 242 24000ft 335kts
15-Feb-19 20:41 46.645438 -118.538990 242 24000ft 335kts
15-Feb-19 20:42 46.612512 -118.627042 242 24000ft 335kts
15-Feb-19 20:43 46.580647 -118.712086 242 24000ft 334kts
15-Feb-19 20:44 46.549423 -118.795150 242 24000ft 334kts
15-Feb-19 20:45 46.516733 -118.881770 242 24000ft 334kts
15-Feb-19 20:46 46.478735 -118.982145 242 24000ft 333kts
15-Feb-19 20:47 46.443644 -119.074488 242 24000ft 333kts
15-Feb-19 20:48 46.409582 -119.163826 242 24000ft 332kts
15-Feb-19 20:49 46.380867 -119.238909 242 24000ft 332kts
15-Feb-19 20:50 46.350253 -119.318747 242 24000ft 331kts
15-Feb-19 20:51 46.320744 -119.395478 242 24000ft 331kts
15-Feb-19 20:52 46.291994 -119.470049 242 24000ft 330kts
15-Feb-19 20:53 46.261315 -119.549412 242 24000ft 329kts
15-Feb-19 20:54 46.219489 -119.657203 242 24000ft 328kts
15-Feb-19 20:55 46.175581 -119.769953 242 24000ft 327kts
15-Feb-19 20:56 46.131242 -119.883306 242 24000ft 326kts
15-Feb-19 20:57 46.086801 -119.996502 242 24000ft 325kts
15-Feb-19 20:58 46.042536 -120.108818 242 24000ft 324kts
15-Feb-19 20:59 45.998166 -120.220902 242 24000ft 324kts
15-Feb-19 21:00 45.953751 -120.332567 242 24000ft 324kts
15-Feb-19 21:01 45.909159 -120.444413 241 24000ft 324kts
15-Feb-19 21:02 45.864606 -120.555512 241 24000ft 324kts
15-Feb-19 21:03 45.820393 -120.666617 244 24000ft 323kts
15-Feb-19 21:04 45.788398 -120.785224 249 24000ft 323kts
15-Feb-19 21:05 45.755954 -120.903180 248 24000ft 323kts
15-Feb-19 21:06 45.723450 -121.021102 248 23994ft 322kts
15-Feb-19 21:07 45.691689 -121.135786 248 23999ft 310kts
15-Feb-19 21:08 45.660488 -121.248017 247 24001ft 305kts
15-Feb-19 21:09 45.629050 -121.360464 247 24000ft 307kts
15-Feb-19 21:10 45.597620 -121.472522 247 21903ft 313kts
15-Feb-19 21:11 45.565610 -121.587481 247 17939ft 315kts
15-Feb-19 21:12 45.534461 -121.699515 252 14195ft 302kts
15-Feb-19 21:13 45.532816 -121.805178 269 14691ft 259kts
15-Feb-19 21:14 45.536653 -121.916448 270 13838ft 299kts
15-Feb-19 21:15 45.552345 -122.029700 283 11633ft 300kts
15-Feb-19 21:16 45.575867 -122.135918 284 9112ft 291kts
15-Feb-19 21:17 45.596202 -122.233300 283 8010ft 233kts
15-Feb-19 21:18 45.615240 -122.329934 283 8179ft 267kts
15-Feb-19 21:19 45.634709 -122.423235 282 8206ft 249kts
15-Feb-19 21:20 45.662692 -122.520143 294 7374ft 261kts
15-Feb-19 21:21 45.692884 -122.602487 295 6388ft 229kts
15-Feb-19 21:22 45.722261 -122.683986 295 5411ft 236kts
15-Feb-19 21:23 45.750822 -122.762872 293 5175ft 217kts
15-Feb-19 21:24 45.770139 -122.839858 246 5198ft 215kts
15-Feb-19 21:25 45.723997 -122.897161 195 4182ft 247kts
15-Feb-19 21:26 45.669140 -122.858588 113 3238ft 208kts
15-Feb-19 21:27 45.664403 -122.780132 96 2188ft 193kts
15-Feb-19 21:28 45.646205 -122.719189 130 2263ft 141kts
15-Feb-19 21:29 45.623389 -122.674353 113 1357ft 124kts
15-Feb-19 21:30 45.608458 -122.630718 120 797ft 133kts
15-Feb-19 21:31 45.591827 -122.588071 120 38ft 90kts
15-Feb-19 21:32 45.588603 -122.582232 223 37ft 0kts
15-Feb-19 21:33 45.588977 -122.583919 299 38ft 22kts
15-Feb-19 21:34 45.591263 -122.591908 300 38ft 24kts
15-Feb-19 21:36 45.591880 -122.598652 207 38ft 19kts
15-Feb-19 21:37 45.588761 -122.599735 119 37ft 12kts
15-Feb-19 21:38 45.585621 -122.592590 128 38ft 5kts
15-Feb-19 21:39 45.585918 -122.591932 12 37ft 0kts
15-Feb-19 21:40 45.585919 -122.591932 12 37ft 0kts

Navigation Log

Ident Type
Flight plan parsing failed, navigation log unavailable